Time;durP1;ratioP1;P1;durP2;ratioP2;P2;SDS_P1;SDS_P2;PMS_P1;PMS_P2;Temp;Humidity;BMP_temperature;BMP_pressure;BME280_temperature;BME280_humidity;BME280_pressure;Samples;Min_cycle;Max_cycle;Signal;HPM_P1;HPM_P2
2024/04/08 00:00:25;;;;;;;7.47;3.63;;;18.80;1.00;;;;;;5012655;28;20434;-74
2024/04/08 00:02:50;;;;;;;5.53;2.80;;;18.70;1.00;;;;;;5013105;28;20461;-72
2024/04/08 00:05:17;;;;;;;8.00;4.40;;;18.70;1.00;;;;;;5012685;28;20838;-74
2024/04/08 00:07:44;;;;;;;6.10;3.17;;;18.60;1.00;;;;;;5012436;28;20176;-74
2024/04/08 00:10:10;;;;;;;7.40;3.50;;;18.60;1.00;;;;;;5012784;28;20426;-73
2024/04/08 00:12:41;;;;;;;6.10;3.10;;;18.50;1.00;;;;;;5013101;28;20415;-72
2024/04/08 00:15:09;;;;;;;3.70;2.70;;;18.40;1.00;;;;;;5028268;28;20454;-72
2024/04/08 00:17:35;;;;;;;6.00;3.50;;;18.40;1.00;;;;;;5041419;28;20435;-72
2024/04/08 00:20:03;;;;;;;6.50;3.93;;;18.30;1.00;;;;;;5019382;28;20466;-73
2024/04/08 00:22:28;;;;;;;6.23;3.70;;;18.20;1.00;;;;;;5018615;28;20780;-72
2024/04/08 00:24:54;;;;;;;9.47;2.73;;;18.20;1.00;;;;;;5006415;28;20454;-72
2024/04/08 00:27:20;;;;;;;7.53;3.53;;;18.20;1.00;;;;;;5016624;28;20200;-72
2024/04/08 00:29:46;;;;;;;8.10;3.87;;;18.10;1.00;;;;;;5015141;28;20176;-71
2024/04/08 00:32:12;;;;;;;9.93;5.37;;;18.10;1.00;;;;;;5014566;28;20176;-72
2024/04/08 00:34:39;;;;;;;5.20;3.40;;;18.00;1.00;;;;;;5014187;28;20918;-73
2024/04/08 00:37:04;;;;;;;7.63;3.27;;;18.00;1.00;;;;;;5013317;28;20525;-73
2024/04/08 00:39:30;;;;;;;5.53;3.57;;;18.00;1.00;;;;;;5013818;28;20556;-72
2024/04/08 00:41:55;;;;;;;6.27;3.10;;;18.00;1.00;;;;;;5013255;28;20230;-72
2024/04/08 00:44:21;;;;;;;5.03;3.47;;;17.90;1.00;;;;;;5013128;28;20262;-72
2024/04/08 00:46:50;;;;;;;13.57;3.80;;;17.80;1.00;;;;;;5013557;28;20235;-72
2024/04/08 00:49:16;;;;;;;6.03;3.17;;;17.80;1.00;;;;;;5013030;28;20517;-72
2024/04/08 00:51:44;;;;;;;7.00;2.77;;;17.80;1.00;;;;;;5008205;28;20470;-72
2024/04/08 00:54:10;;;;;;;11.23;3.57;;;17.80;1.00;;;;;;4993475;28;20454;-73
2024/04/08 00:56:41;;;;;;;4.87;3.60;;;17.70;1.00;;;;;;4993457;28;20440;-73
2024/04/08 00:59:09;;;;;;;5.93;3.03;;;17.70;1.00;;;;;;4993593;28;20986;-73
2024/04/08 01:01:36;;;;;;;6.40;3.83;;;17.60;1.00;;;;;;4992767;28;20418;-72
2024/04/08 01:04:01;;;;;;;5.03;3.20;;;17.60;1.00;;;;;;5011550;28;20415;-71
2024/04/08 01:06:28;;;;;;;4.70;3.10;;;17.50;1.00;;;;;;5013130;28;20592;-71
2024/04/08 01:08:53;;;;;;;8.20;2.80;;;17.50;1.00;;;;;;5012645;28;20192;-71
2024/04/08 01:11:19;;;;;;;7.10;3.30;;;17.40;1.00;;;;;;5012742;28;20433;-71
2024/04/08 01:13:45;;;;;;;5.13;3.40;;;17.40;1.00;;;;;;5012950;28;20594;-71
2024/04/08 01:16:11;;;;;;;3.13;2.33;;;17.40;1.00;;;;;;5010522;28;20227;-73
2024/04/08 01:18:37;;;;;;;10.33;3.27;;;17.40;1.00;;;;;;4993803;28;20550;-72
2024/04/08 01:21:02;;;;;;;10.07;3.40;;;17.40;1.00;;;;;;4993815;28;20173;-73
2024/04/08 01:23:29;;;;;;;12.33;3.13;;;17.30;1.00;;;;;;4993858;28;20418;-73
2024/04/08 01:25:55;;;;;;;8.33;3.13;;;17.20;1.00;;;;;;4993849;28;20719;-73
2024/04/08 01:28:22;;;;;;;4.20;2.93;;;17.20;1.00;;;;;;4995864;28;20447;-72
2024/04/08 01:30:49;;;;;;;9.03;4.03;;;17.20;1.00;;;;;;5002819;28;20446;-73
2024/04/08 01:33:18;;;;;;;3.57;2.47;;;17.20;1.00;;;;;;4998409;28;20431;-72
2024/04/08 01:35:44;;;;;;;7.70;3.97;;;17.20;1.00;;;;;;4995506;28;20932;-72
2024/04/08 01:38:09;;;;;;;4.33;3.40;;;17.10;1.00;;;;;;4998338;28;20517;-72
2024/04/08 01:40:35;;;;;;;6.73;3.60;;;17.00;1.00;;;;;;4995138;28;20260;-72
2024/04/08 01:43:00;;;;;;;8.50;2.90;;;17.10;1.00;;;;;;4995358;28;20649;-73
2024/04/08 01:45:26;;;;;;;4.10;2.60;;;17.10;1.00;;;;;;4995120;28;20176;-73
2024/04/08 01:47:51;;;;;;;4.27;2.93;;;17.20;1.00;;;;;;4995687;28;20199;-73
2024/04/08 01:50:17;;;;;;;10.10;3.73;;;17.20;1.00;;;;;;5009359;28;20184;-72
2024/04/08 01:52:47;;;;;;;4.27;3.00;;;17.20;1.00;;;;;;5015117;28;20184;-72
2024/04/08 01:55:13;;;;;;;10.27;3.93;;;17.20;1.00;;;;;;5014451;28;20187;-71
2024/04/08 01:57:38;;;;;;;5.83;3.73;;;17.10;1.00;;;;;;5012968;28;20969;-72
2024/04/08 02:00:07;;;;;;;9.03;3.03;;;17.10;1.00;;;;;;5000811;28;20218;-73
2024/04/08 02:02:33;;;;;;;4.07;2.77;;;17.10;1.00;;;;;;5015156;28;20671;-73
2024/04/08 02:04:58;;;;;;;6.83;3.80;;;17.10;1.00;;;;;;5030779;28;20950;-73
2024/04/08 02:07:24;;;;;;;14.43;3.30;;;17.10;1.00;;;;;;5015298;28;20184;-74
2024/04/08 02:09:50;;;;;;;9.03;3.50;;;17.10;1.00;;;;;;5014044;28;20594;-73
2024/04/08 02:12:15;;;;;;;10.23;2.80;;;17.10;1.00;;;;;;5016017;28;20298;-72
2024/04/08 02:14:41;;;;;;;7.20;3.50;;;17.00;1.00;;;;;;5015299;28;20734;-73
2024/04/08 02:17:06;;;;;;;9.43;3.43;;;16.80;1.00;;;;;;5005870;28;20263;-73
2024/04/08 02:19:32;;;;;;;10.90;3.50;;;16.80;1.00;;;;;;4994777;28;20572;-73
2024/04/08 02:21:58;;;;;;;5.93;3.07;;;16.90;1.00;;;;;;4995457;28;20169;-72
2024/04/08 02:24:23;;;;;;;4.10;2.97;;;16.90;1.00;;;;;;5001429;28;20203;-72
2024/04/08 02:26:49;;;;;;;11.73;3.53;;;16.80;1.00;;;;;;5014942;28;20200;-73
2024/04/08 02:29:14;;;;;;;9.60;3.70;;;16.80;1.00;;;;;;5004694;28;20675;-74
2024/04/08 02:31:40;;;;;;;5.40;3.13;;;16.70;1.00;;;;;;4995187;28;20184;-74
2024/04/08 02:34:05;;;;;;;5.97;3.67;;;16.70;1.00;;;;;;4993447;28;20201;-74
2024/04/08 02:36:31;;;;;;;9.93;3.40;;;16.60;1.00;;;;;;4995462;28;20568;-75
2024/04/08 02:38:56;;;;;;;8.00;3.57;;;16.50;1.00;;;;;;4994001;28;20216;-74
2024/04/08 02:41:22;;;;;;;4.17;2.70;;;16.40;1.00;;;;;;4994789;28;20532;-74
2024/04/08 02:43:47;;;;;;;6.70;2.50;;;16.40;1.00;;;;;;4994853;28;20243;-72
2024/04/08 02:46:13;;;;;;;9.33;3.23;;;16.20;1.00;;;;;;4994983;28;20224;-73
2024/04/08 02:48:38;;;;;;;7.27;2.50;;;16.20;1.00;;;;;;4998823;28;20191;-73
2024/04/08 02:51:05;;;;;;;8.47;3.90;;;16.10;1.00;;;;;;5013687;28;20188;-73
2024/04/08 02:53:30;;;;;;;9.33;2.63;;;16.10;1.00;;;;;;5014293;28;20184;-73
2024/04/08 02:56:06;;;;;;;10.77;3.80;;;16.00;1.00;;;;;;5014187;28;20516;-73
2024/04/08 02:58:32;;;;;;;9.23;3.40;;;15.90;1.00;;;;;;5013853;28;20256;-73
2024/04/08 03:01:03;;;;;;;6.87;3.57;;;15.80;1.00;;;;;;5029056;28;20473;-73
2024/04/08 03:03:28;;;;;;;5.27;2.70;;;15.70;1.00;;;;;;4995194;28;20478;-73
2024/04/08 03:05:54;;;;;;;10.80;3.23;;;15.60;1.00;;;;;;4994790;28;20473;-73
2024/04/08 03:08:19;;;;;;;5.33;2.40;;;15.50;1.00;;;;;;4994875;28;20177;-73
2024/04/08 03:10:45;;;;;;;6.07;2.70;;;15.40;1.00;;;;;;4994434;28;20180;-73
2024/04/08 03:13:10;;;;;;;7.40;2.70;;;15.30;1.00;;;;;;4995335;28;20652;-72
2024/04/08 03:15:36;;;;;;;6.93;3.30;;;15.20;1.00;;;;;;4995010;28;20196;-72
2024/04/08 03:18:06;;;;;;;4.60;2.93;;;15.10;1.00;;;;;;4994302;28;20182;-74
2024/04/08 03:20:35;;;;;;;9.07;2.83;;;15.10;1.00;;;;;;4994853;28;20333;-73
2024/04/08 03:23:00;;;;;;;7.20;3.20;;;15.00;1.00;;;;;;4994742;28;20415;-75
2024/04/08 03:25:26;;;;;;;8.23;2.40;;;15.00;1.00;;;;;;4994252;28;20414;-74
2024/04/08 03:27:52;;;;;;;10.13;2.80;;;14.90;1.00;;;;;;4993805;28;20187;-72
2024/04/08 03:30:17;;;;;;;5.17;2.80;;;14.80;1.00;;;;;;4996379;28;20550;-72
2024/04/08 03:32:43;;;;;;;7.33;2.67;;;14.80;1.00;;;;;;5013959;28;20273;-71
2024/04/08 03:35:08;;;;;;;9.30;3.73;;;14.70;1.00;;;;;;5015898;28;20709;-71
2024/04/08 03:37:34;;;;;;;8.57;4.33;;;14.60;1.00;;;;;;5016353;28;20203;-73
2024/04/08 03:40:03;;;;;;;8.87;4.10;;;14.60;1.00;;;;;;5017301;28;20305;-73
2024/04/08 03:42:28;;;;;;;8.13;3.43;;;14.50;1.00;;;;;;5016871;28;20175;-72
2024/04/08 03:44:54;;;;;;;8.10;3.77;;;14.50;1.00;;;;;;5028018;28;20435;-73
2024/04/08 03:47:20;;;;;;;4.57;3.37;;;14.40;1.00;;;;;;5012849;23;20740;-69
2024/04/08 03:49:46;;;;;;;9.90;2.80;;;14.40;1.00;;;;;;4992600;28;20184;-69
2024/04/08 03:52:11;;;;;;;10.83;3.13;;;14.30;1.00;;;;;;4992113;28;20203;-70
2024/04/08 03:54:37;;;;;;;6.60;2.80;;;14.30;1.00;;;;;;4992529;28;20873;-69
2024/04/08 03:57:04;;;;;;;10.03;3.90;;;14.30;1.00;;;;;;4992788;28;20207;-70
2024/04/08 03:59:29;;;;;;;9.40;3.30;;;14.30;1.00;;;;;;4992276;28;20463;-70
2024/04/08 04:01:55;;;;;;;6.30;3.40;;;14.30;1.00;;;;;;4992603;28;20211;-69
2024/04/08 04:04:20;;;;;;;8.87;3.33;;;14.30;1.00;;;;;;4992704;28;20204;-70
2024/04/08 04:06:46;;;;;;;10.87;4.20;;;14.20;1.00;;;;;;4993218;28;20227;-70
2024/04/08 04:09:12;;;;;;;10.20;2.60;;;14.20;1.00;;;;;;4991198;28;20422;-70
2024/04/08 04:11:37;;;;;;;8.47;3.57;;;14.00;1.00;;;;;;4972490;28;20735;-70
2024/04/08 04:14:03;;;;;;;9.47;3.20;;;13.90;1.00;;;;;;4973064;28;20264;-69
2024/04/08 04:16:28;;;;;;;8.43;3.47;;;13.90;1.00;;;;;;4975206;28;20202;-72
2024/04/08 04:18:54;;;;;;;6.90;3.13;;;13.90;1.00;;;;;;4975449;28;20787;-69
2024/04/08 04:21:19;;;;;;;8.40;3.50;;;13.80;1.00;;;;;;4976493;28;20394;-69
2024/04/08 04:23:45;;;;;;;8.03;3.50;;;13.80;1.00;;;;;;4992094;28;20224;-69
2024/04/08 04:26:10;;;;;;;7.80;3.43;;;13.70;1.00;;;;;;4994749;28;20273;-69
2024/04/08 04:28:36;;;;;;;6.97;3.07;;;13.60;1.00;;;;;;4995362;28;20710;-69
2024/04/08 04:31:02;;;;;;;16.43;4.70;;;13.60;1.00;;;;;;4995043;28;20554;-69
2024/04/08 04:33:28;;;;;;;15.07;3.83;;;13.50;1.00;;;;;;4996085;28;20182;-69
2024/04/08 04:35:58;;;;;;;14.73;3.90;;;13.40;1.00;;;;;;4996420;28;20444;-69
2024/04/08 04:38:24;;;;;;;9.70;3.93;;;13.30;1.00;;;;;;4976540;28;20206;-68
2024/04/08 04:41:06;;;;;;;11.33;3.70;;;13.30;1.00;;;;;;4976638;28;20419;-69
2024/04/08 04:43:32;;;;;;;14.73;4.20;;;13.30;1.00;;;;;;4975920;28;20422;-69
2024/04/08 04:45:58;;;;;;;5.53;2.70;;;13.30;1.00;;;;;;4976723;28;20570;-69
2024/04/08 04:48:25;;;;;;;19.67;4.87;;;13.30;1.00;;;;;;4975905;28;20436;-69
2024/04/08 04:50:50;;;;;;;7.67;3.10;;;13.30;1.00;;;;;;4979022;28;20438;-69
2024/04/08 04:53:16;;;;;;;12.80;3.77;;;13.20;1.00;;;;;;4993641;28;20796;-68
2024/04/08 04:55:42;;;;;;;8.90;3.97;;;13.20;1.00;;;;;;4980065;28;20264;-68
2024/04/08 04:58:07;;;;;;;13.73;4.37;;;13.30;1.00;;;;;;4980761;28;20236;-69
2024/04/08 05:00:36;;;;;;;7.70;3.27;;;13.30;1.00;;;;;;4978678;28;20185;-69
2024/04/08 05:03:01;;;;;;;9.70;3.13;;;13.40;1.00;;;;;;4980039;28;20676;-68
2024/04/08 05:05:27;;;;;;;7.77;3.40;;;13.40;1.00;;;;;;4982233;28;20435;-69
2024/04/08 05:07:54;;;;;;;10.80;3.23;;;13.40;1.00;;;;;;4983229;28;20205;-69
2024/04/08 05:10:20;;;;;;;7.30;3.97;;;13.40;1.00;;;;;;4980199;28;20456;-69
2024/04/08 05:12:45;;;;;;;8.40;3.57;;;13.40;1.00;;;;;;4981686;28;20501;-69
2024/04/08 05:15:11;;;;;;;9.20;3.43;;;13.50;1.00;;;;;;4980582;28;20190;-70
2024/04/08 05:17:36;;;;;;;10.53;4.50;;;13.50;1.00;;;;;;4989216;28;20550;-69
2024/04/08 05:20:04;;;;;;;15.20;4.13;;;13.60;1.00;;;;;;4997634;28;20276;-69
2024/04/08 05:22:30;;;;;;;13.70;5.83;;;13.60;1.00;;;;;;4998369;28;20174;-70
2024/04/08 05:24:56;;;;;;;16.23;5.20;;;13.70;1.00;;;;;;4985436;28;20524;-70
2024/04/08 05:27:21;;;;;;;12.17;4.27;;;13.70;1.00;;;;;;4977243;28;20476;-70
2024/04/08 05:29:47;;;;;;;9.40;4.03;;;13.80;1.00;;;;;;4976943;28;20207;-70
2024/04/08 05:32:12;;;;;;;7.07;3.23;;;13.80;1.00;;;;;;4994272;28;20225;-70
2024/04/08 05:34:39;;;;;;;11.10;4.07;;;13.80;1.00;;;;;;4997460;28;20215;-71
2024/04/08 05:37:04;;;;;;;13.27;4.07;;;13.90;1.00;;;;;;4998182;28;20232;-68
2024/04/08 05:39:30;;;;;;;10.20;3.80;;;14.00;1.00;;;;;;4996194;28;20499;-69
2024/04/08 05:41:55;;;;;;;9.07;4.47;;;14.00;1.00;;;;;;4995881;28;20191;-68
2024/04/08 05:44:21;;;;;;;13.20;5.53;;;14.20;1.00;;;;;;4985537;28;20182;-68
2024/04/08 05:46:46;;;;;;;13.53;4.67;;;14.40;1.00;;;;;;4976415;28;20218;-68
2024/04/08 05:49:12;;;;;;;7.90;3.97;;;14.60;1.00;;;;;;4975680;28;20560;-69
2024/04/08 05:51:37;;;;;;;9.90;5.10;;;14.80;1.00;;;;;;4979560;28;20192;-69
2024/04/08 05:54:03;;;;;;;12.73;4.43;;;15.00;1.00;;;;;;4977543;28;20196;-69
2024/04/08 05:56:29;;;;;;;10.93;4.30;;;15.00;1.00;;;;;;4977605;28;20317;-68
2024/04/08 05:58:55;;;;;;;11.60;4.17;;;15.20;1.00;;;;;;4992632;28;20593;-68
2024/04/08 06:01:20;;;;;;;13.13;4.03;;;15.30;1.00;;;;;;4997139;28;20499;-68
2024/04/08 06:03:46;;;;;;;18.33;4.60;;;15.50;1.00;;;;;;5000140;28;20187;-68
2024/04/08 06:06:18;;;;;;;13.90;4.73;;;15.80;1.00;;;;;;5000275;28;20310;-68
2024/04/08 06:08:44;;;;;;;12.47;5.23;;;16.20;1.00;;;;;;5002027;28;20185;-68
2024/04/08 06:11:09;;;;;;;12.10;4.17;;;16.50;1.00;;;;;;4992250;28;20965;-68
2024/04/08 06:13:35;;;;;;;11.00;5.43;;;16.90;1.00;;;;;;4982405;28;20268;-69
2024/04/08 06:16:02;;;;;;;9.47;4.10;;;17.20;1.00;;;;;;4981432;28;20209;-68
2024/04/08 06:18:27;;;;;;;9.13;4.07;;;17.80;1.00;;;;;;4978239;28;20205;-69
2024/04/08 06:20:57;;;;;;;7.10;4.17;;;18.40;1.00;;;;;;4979140;28;20413;-73
2024/04/08 06:23:23;;;;;;;10.00;4.43;;;18.80;1.00;;;;;;4974903;28;20645;-72
2024/04/08 06:25:59;;;;;;;6.30;3.77;;;19.10;1.00;;;;;;4973731;28;20590;-73
2024/04/08 06:28:24;;;;;;;7.90;4.27;;;19.50;1.00;;;;;;4974776;28;20204;-73
2024/04/08 06:30:50;;;;;;;11.17;5.23;;;20.20;1.00;;;;;;4973388;28;20425;-72
2024/04/08 06:33:15;;;;;;;14.27;4.83;;;20.90;1.00;;;;;;4974823;28;20181;-73
2024/04/08 06:35:44;;;;;;;16.70;5.67;;;21.50;1.00;;;;;;4974514;28;20185;-73
2024/04/08 06:38:13;;;;;;;12.63;4.73;;;21.70;1.00;;;;;;4977921;28;20184;-73
2024/04/08 06:40:43;;;;;;;15.23;6.30;;;22.10;1.00;;;;;;4993841;28;20439;-73
2024/04/08 06:43:09;;;;;;;14.23;5.90;;;22.60;1.00;;;;;;4993939;28;20469;-73
2024/04/08 06:45:35;;;;;;;15.60;5.37;;;22.90;1.00;;;;;;4992409;28;20418;-73
2024/04/08 06:48:01;;;;;;;6.10;4.50;;;23.30;1.00;;;;;;4995085;28;20923;-72
2024/04/08 06:50:27;;;;;;;8.57;4.30;;;23.60;1.00;;;;;;4992436;28;20186;-72
2024/04/08 06:52:52;;;;;;;8.23;4.93;;;24.10;1.00;;;;;;4993515;28;20431;-73
2024/04/08 06:55:18;;;;;;;7.73;4.00;;;24.50;1.00;;;;;;4992450;28;20544;-72
2024/04/08 06:57:44;;;;;;;7.90;5.47;;;24.70;1.00;;;;;;4992541;28;20220;-72
2024/04/08 07:00:10;;;;;;;14.53;5.20;;;25.30;1.00;;;;;;4992215;28;20205;-73
2024/04/08 07:02:36;;;;;;;7.07;4.40;;;;;;;;;;4993727;28;20211;-71
2024/04/08 07:05:04;;;;;;;11.00;4.43;;;26.20;1.00;;;;;;4992001;28;20415;-73
2024/04/08 07:07:30;;;;;;;9.80;4.87;;;;;;;;;;4992174;28;20462;-72
2024/04/08 07:09:56;;;;;;;12.03;4.70;;;26.90;1.00;;;;;;4993611;28;20424;-70
2024/04/08 07:12:21;;;;;;;13.27;5.60;;;27.40;1.00;;;;;;4992260;28;20431;-73
2024/04/08 07:14:51;;;;;;;10.33;5.43;;;27.50;1.00;;;;;;4992151;28;20547;-72
2024/04/08 07:17:16;;;;;;;9.00;4.33;;;27.60;1.00;;;;;;4993179;28;20197;-73
2024/04/08 07:21:12;;;;;;;12.23;4.70;;;27.40;1.00;;;;;;5491980;25;20573;-71
2024/04/08 07:23:38;;;;;;;11.27;5.07;;;28.40;1.00;;;;;;5423350;26;20472;-71
2024/04/08 07:26:04;;;;;;;4.63;3.93;;;28.60;1.00;;;;;;5418344;26;20598;-69
2024/04/08 07:28:29;;;;;;;7.53;4.50;;;28.70;1.00;;;;;;5427993;26;20309;-69
2024/04/08 07:30:55;;;;;;;8.63;4.80;;;28.80;1.00;;;;;;5420404;26;20272;-69
2024/04/08 07:33:20;;;;;;;8.70;4.77;;;28.60;1.00;;;;;;5438045;21;20773;-70
2024/04/08 07:35:46;;;;;;;8.50;5.50;;;28.00;1.00;;;;;;5363869;26;20271;-69
2024/04/08 07:38:11;;;;;;;9.30;5.30;;;27.30;1.00;;;;;;5359146;26;20812;-69
2024/04/08 07:40:37;;;;;;;10.47;4.33;;;26.90;1.00;;;;;;5367386;26;20330;-69
2024/04/08 07:43:02;;;;;;;10.13;4.53;;;26.70;1.00;;;;;;5362189;26;20241;-69
2024/04/08 07:45:28;;;;;;;8.10;4.00;;;26.60;1.00;;;;;;5362201;26;20268;-70
2024/04/08 07:47:53;;;;;;;10.43;4.60;;;26.60;1.00;;;;;;5362088;26;20229;-70
2024/04/08 07:50:19;;;;;;;6.23;4.53;;;26.80;1.00;;;;;;5334082;26;20230;-70
2024/04/08 07:52:45;;;;;;;9.10;5.43;;;27.00;1.00;;;;;;5361434;26;20228;-70
2024/04/08 07:55:10;;;;;;;6.10;5.10;;;27.20;1.00;;;;;;5361663;26;20288;-70
2024/04/08 08:06:55;;;;;;;9.37;5.40;;;27.80;1.00;;;;;;5148815;27;20554;-69
2024/04/08 08:09:21;;;;;;;5.27;4.73;;;27.30;1.00;;;;;;5155942;27;20476;-70
2024/04/08 08:11:46;;;;;;;11.30;5.60;;;27.90;1.00;;;;;;5153985;27;20735;-70
2024/04/08 08:14:12;;;;;;;10.70;5.97;;;;;;;;;;5151061;27;20358;-71
2024/04/08 08:16:38;;;;;;;9.80;6.73;;;30.30;1.00;;;;;;5148862;27;20286;-70
2024/04/08 08:19:04;;;;;;;12.83;5.87;;;30.90;1.00;;;;;;5138750;27;22751;-70
2024/04/08 08:21:29;;;;;;;10.60;6.37;;;31.30;1.00;;;;;;5138559;27;20799;-69
2024/04/08 08:23:57;;;;;;;14.73;6.00;;;31.50;1.00;;;;;;5143346;27;20621;-69
2024/04/08 08:26:22;;;;;;;5.90;5.30;;;31.20;1.00;;;;;;5261451;22;20656;-70
2024/04/08 08:28:48;;;;;;;8.77;5.67;;;31.70;1.00;;;;;;5273287;27;20529;-70
2024/04/08 08:31:13;;;;;;;11.27;6.47;;;32.60;1.00;;;;;;5267364;27;20236;-70
2024/04/08 08:33:39;;;;;;;7.37;5.87;;;32.70;1.00;;;;;;5250521;27;20232;-70
2024/04/08 08:36:05;;;;;;;10.20;5.70;;;32.50;1.00;;;;;;5258378;27;20260;-70
2024/04/08 08:38:33;;;;;;;7.50;5.80;;;32.90;1.00;;;;;;5243275;27;20475;-70
2024/04/08 08:41:06;;;;;;;15.13;5.90;;;32.70;1.00;;;;;;5240385;27;20244;-70
2024/04/08 08:43:32;;;;;;;6.40;5.77;;;33.00;1.00;;;;;;5241925;27;20464;-70
2024/04/08 08:45:59;;;;;;;10.77;5.73;;;32.90;1.00;;;;;;5244021;27;20850;-70
2024/04/08 08:48:25;;;;;;;22.93;6.97;;;32.80;1.00;;;;;;5243152;27;20600;-70
2024/04/08 08:50:51;;;;;;;13.63;6.73;;;;;;;;;;5240610;27;20488;-70
2024/04/08 08:53:17;;;;;;;15.97;7.67;;;30.20;1.00;;;;;;5242941;27;20480;-70
2024/04/08 08:55:44;;;;;;;12.27;6.33;;;29.90;1.00;;;;;;5243477;27;20476;-70
2024/04/08 08:58:12;;;;;;;10.37;5.93;;;29.40;1.00;;;;;;5242045;27;20480;-70
2024/04/08 09:00:38;;;;;;;10.77;5.33;;;28.60;1.00;;;;;;5244170;27;20461;-69
2024/04/08 09:03:08;;;;;;;11.70;6.80;;;28.30;1.00;;;;;;5244819;27;20552;-70
2024/04/08 09:05:33;;;;;;;12.67;6.10;;;28.10;1.00;;;;;;5241382;27;20240;-70
2024/04/08 09:07:58;;;;;;;12.50;6.10;;;28.00;1.00;;;;;;5243190;27;20559;-70
2024/04/08 09:10:27;;;;;;;8.80;5.93;;;27.70;1.00;;;;;;5240411;27;20242;-70
2024/04/08 09:12:52;;;;;;;7.23;5.17;;;27.70;1.00;;;;;;5242592;27;20248;-70
2024/04/08 09:15:18;;;;;;;11.63;5.43;;;27.80;1.00;;;;;;5242871;27;20480;-70
2024/04/08 09:17:43;;;;;;;10.83;5.27;;;27.80;1.00;;;;;;5242949;27;20244;-69
2024/04/08 09:20:11;;;;;;;13.90;5.70;;;27.80;1.00;;;;;;5238795;27;20240;-70
2024/04/08 09:22:36;;;;;;;15.27;6.10;;;27.80;1.00;;;;;;5239832;27;20295;-70
2024/04/08 09:25:02;;;;;;;8.73;4.93;;;27.80;1.00;;;;;;5241110;27;20476;-70
2024/04/08 09:27:28;;;;;;;10.80;5.43;;;27.80;1.00;;;;;;5242193;27;20747;-70
2024/04/08 09:29:53;;;;;;;7.40;4.47;;;27.80;1.00;;;;;;5241561;27;20233;-70
2024/04/08 09:32:19;;;;;;;11.40;4.57;;;27.80;1.00;;;;;;5242114;27;20306;-70
2024/04/08 09:34:45;;;;;;;9.73;5.40;;;27.90;1.00;;;;;;5242208;27;20241;-70
2024/04/08 09:37:13;;;;;;;7.03;4.00;;;28.00;1.00;;;;;;5242623;27;20548;-70
2024/04/08 09:39:40;;;;;;;4.83;4.37;;;27.80;1.00;;;;;;5239975;27;20818;-70
2024/04/08 09:42:10;;;;;;;5.30;4.23;;;27.90;1.00;;;;;;5241663;27;20488;-70
2024/04/08 09:44:37;;;;;;;7.50;4.70;;;27.70;1.00;;;;;;5242965;27;20545;-74
2024/04/08 09:47:02;;;;;;;7.00;4.50;;;27.50;1.00;;;;;;5243638;27;20536;-73
2024/04/08 09:49:28;;;;;;;4.63;3.87;;;27.40;1.00;;;;;;5242886;27;20971;-73
2024/04/08 09:51:55;;;;;;;5.77;4.10;;;27.20;1.00;;;;;;5240262;27;20244;-73
2024/04/08 09:54:21;;;;;;;7.07;4.40;;;27.30;1.00;;;;;;5242830;27;20237;-70
2024/04/08 09:56:50;;;;;;;8.77;4.50;;;27.40;1.00;;;;;;5239251;27;20883;-73
2024/04/08 09:59:19;;;;;;;4.83;4.33;;;27.40;1.00;;;;;;5241326;27;20289;-73
2024/04/08 10:01:46;;;;;;;8.70;5.60;;;27.40;1.00;;;;;;5235907;27;20489;-71
2024/04/08 10:04:24;;;;;;;13.50;5.30;;;27.30;1.00;;;;;;5243125;27;20819;-72
2024/04/08 10:06:51;;;;;;;9.57;4.00;;;27.60;1.00;;;;;;5243337;27;20521;-75
2024/04/08 10:09:20;;;;;;;7.83;5.00;;;27.60;1.00;;;;;;5236704;27;20460;-73
2024/04/08 10:11:49;;;;;;;10.07;4.07;;;27.20;1.00;;;;;;5240605;27;20548;-75
2024/04/08 10:14:16;;;;;;;7.67;4.70;;;27.60;1.00;;;;;;5226063;27;20468;-75
2024/04/08 10:16:42;;;;;;;10.43;5.90;;;27.80;1.00;;;;;;5239187;27;20532;-75
2024/04/08 10:19:10;;;;;;;8.30;3.90;;;27.90;1.00;;;;;;5240418;27;20991;-74
2024/04/08 10:21:37;;;;;;;6.23;4.90;;;28.00;1.00;;;;;;5245251;27;20767;-74
2024/04/08 10:24:03;;;;;;;7.73;5.00;;;28.20;1.00;;;;;;5242227;27;20611;-74
2024/04/08 10:26:29;;;;;;;8.93;4.50;;;28.20;1.00;;;;;;5242835;27;20531;-74
2024/04/08 10:28:55;;;;;;;18.37;5.90;;;28.40;1.00;;;;;;5242471;27;20786;-74
2024/04/08 10:31:27;;;;;;;14.27;6.07;;;28.50;1.00;;;;;;5243095;27;20465;-74
2024/04/08 10:33:52;;;;;;;6.10;5.00;;;28.40;1.00;;;;;;5242242;27;20231;-74
2024/04/08 10:36:18;;;;;;;8.53;5.03;;;28.20;1.00;;;;;;5242818;27;20906;-74
2024/04/08 10:38:43;;;;;;;8.37;5.37;;;28.10;1.00;;;;;;5242442;27;20241;-75
2024/04/08 10:41:09;;;;;;;7.37;5.37;;;28.10;1.00;;;;;;5242852;27;20271;-73
2024/04/08 10:43:35;;;;;;;9.40;4.70;;;28.30;1.00;;;;;;5242299;27;20707;-71
2024/04/08 10:46:14;;;;;;;7.03;5.40;;;28.60;1.00;;;;;;5242651;27;20267;-72
2024/04/08 10:48:40;;;;;;;8.27;4.97;;;28.60;1.00;;;;;;5241814;27;20471;-72
2024/04/08 10:51:09;;;;;;;10.70;5.33;;;28.80;1.00;;;;;;5242143;27;20540;-71
2024/04/08 10:53:34;;;;;;;10.30;5.80;;;28.80;1.00;;;;;;5239144;27;20523;-71
2024/04/08 10:56:00;;;;;;;10.50;4.90;;;29.00;1.00;;;;;;5221574;27;20532;-72
2024/04/08 10:58:25;;;;;;;8.83;4.97;;;29.10;1.00;;;;;;5241114;27;20335;-72
2024/04/08 11:00:51;;;;;;;11.57;5.20;;;28.90;1.00;;;;;;5241837;27;20616;-72
2024/04/08 11:03:17;;;;;;;7.80;5.13;;;28.90;1.00;;;;;;5241612;27;20267;-72
2024/04/08 11:05:43;;;;;;;7.70;5.80;;;29.00;1.00;;;;;;5241751;27;20259;-72
2024/04/08 11:08:11;;;;;;;9.57;4.93;;;28.90;1.00;;;;;;5212449;27;20515;-72
2024/04/08 11:10:36;;;;;;;11.70;5.57;;;28.90;1.00;;;;;;5242067;27;20732;-72
2024/04/08 11:13:02;;;;;;;12.30;5.93;;;29.10;1.00;;;;;;5241016;27;20584;-72
2024/04/08 11:15:29;;;;;;;19.30;5.87;;;29.40;1.00;;;;;;5241937;27;20334;-72
2024/04/08 11:17:56;;;;;;;5.90;5.03;;;29.60;1.00;;;;;;5242158;27;20271;-73
2024/04/08 11:20:22;;;;;;;6.63;5.30;;;29.60;1.00;;;;;;5241826;27;20540;-72
2024/04/08 11:22:48;;;;;;;9.00;5.13;;;29.60;1.00;;;;;;5239259;27;20468;-72
2024/04/08 11:25:17;;;;;;;7.40;5.30;;;29.80;1.00;;;;;;5240040;27;20244;-71
2024/04/08 11:27:43;;;;;;;18.03;5.00;;;29.80;1.00;;;;;;5241784;27;20271;-72
2024/04/08 11:30:17;;;;;;;14.90;6.10;;;29.80;1.00;;;;;;5241711;27;20461;-72
2024/04/08 11:32:43;;;;;;;7.03;4.80;;;29.90;1.00;;;;;;5241458;27;20556;-72
2024/04/08 11:35:09;;;;;;;6.20;4.70;;;30.10;1.00;;;;;;5241616;27;20484;-72
2024/04/08 11:37:35;;;;;;;10.33;5.30;;;30.10;1.00;;;;;;5242505;27;20271;-73
2024/04/08 11:40:01;;;;;;;7.40;5.77;;;30.30;1.00;;;;;;5241696;27;20225;-72
2024/04/08 11:42:26;;;;;;;6.03;4.77;;;30.80;1.00;;;;;;5240369;27;20263;-71
2024/04/08 11:45:00;;;;;;;6.93;5.80;;;30.90;1.00;;;;;;5246849;27;20522;-72
2024/04/08 11:47:25;;;;;;;11.17;5.33;;;30.80;1.00;;;;;;5247196;27;20271;-72
2024/04/08 11:49:51;;;;;;;7.10;4.90;;;30.70;1.00;;;;;;5246230;27;20468;-72
2024/04/08 11:52:17;;;;;;;7.70;5.60;;;30.80;1.00;;;;;;5242607;27;20241;-72
2024/04/08 11:54:43;;;;;;;8.50;5.33;;;30.90;1.00;;;;;;5244711;27;20865;-72
2024/04/08 11:57:09;;;;;;;9.70;6.00;;;30.90;1.00;;;;;;5241878;27;20245;-71
2024/04/08 11:59:35;;;;;;;9.43;5.20;;;30.80;1.00;;;;;;5241925;27;20225;-71
2024/04/08 12:02:01;;;;;;;13.03;5.50;;;31.00;1.00;;;;;;5241256;27;20572;-71
2024/04/08 12:04:26;;;;;;;9.93;5.80;;;31.20;1.00;;;;;;5240769;27;20331;-71
2024/04/08 12:06:52;;;;;;;12.33;5.73;;;31.30;1.00;;;;;;5242747;27;20287;-71
2024/04/08 12:09:17;;;;;;;7.20;5.30;;;30.90;1.00;;;;;;5242997;27;20656;-71
2024/04/08 12:11:44;;;;;;;10.27;6.10;;;30.80;1.00;;;;;;5244378;27;20236;-70
2024/04/08 12:14:10;;;;;;;12.00;5.77;;;31.10;1.00;;;;;;5244701;27;20338;-72
2024/04/08 12:16:35;;;;;;;11.17;5.80;;;31.10;1.00;;;;;;5244410;27;20570;-71
2024/04/08 12:19:01;;;;;;;11.13;6.40;;;31.30;1.00;;;;;;5245170;27;20263;-71
2024/04/08 12:21:26;;;;;;;15.30;5.70;;;31.30;1.00;;;;;;5244224;27;20233;-72
2024/04/08 12:23:55;;;;;;;10.10;5.97;;;30.90;1.00;;;;;;5244789;27;20530;-71
2024/04/08 12:26:20;;;;;;;19.67;6.30;;;30.70;1.00;;;;;;5244746;27;20721;-71
2024/04/08 12:28:46;;;;;;;14.03;6.27;;;30.60;1.00;;;;;;5244534;27;20444;-71
2024/04/08 12:31:12;;;;;;;9.47;6.00;;;30.60;1.00;;;;;;5242515;27;20280;-71
2024/04/08 12:33:38;;;;;;;7.73;5.70;;;30.70;1.00;;;;;;5244192;27;20225;-71
2024/04/08 12:36:06;;;;;;;11.03;5.40;;;30.60;1.00;;;;;;5242435;27;20351;-71
2024/04/08 12:38:32;;;;;;;15.47;5.70;;;30.60;1.00;;;;;;5244051;27;20592;-71
2024/04/08 12:40:58;;;;;;;6.60;5.27;;;30.80;1.00;;;;;;5243657;27;20623;-71
2024/04/08 12:43:25;;;;;;;6.33;5.57;;;30.90;1.00;;;;;;5243708;27;20225;-71
2024/04/08 12:45:50;;;;;;;11.33;5.23;;;31.10;1.00;;;;;;5243861;27;20709;-70
2024/04/08 12:48:16;;;;;;;9.13;5.80;;;31.00;1.00;;;;;;5243740;27;20549;-70
2024/04/08 12:50:41;;;;;;;11.10;5.10;;;30.70;1.00;;;;;;5243645;27;20248;-70
2024/04/08 12:53:07;;;;;;;11.37;6.53;;;30.90;1.00;;;;;;5243214;27;20221;-70
2024/04/08 12:55:35;;;;;;;10.77;5.70;;;30.90;1.00;;;;;;5244071;27;20237;-70
2024/04/08 12:58:00;;;;;;;22.33;7.17;;;30.90;1.00;;;;;;5237914;27;20689;-70
2024/04/08 13:00:26;;;;;;;20.80;6.60;;;31.00;1.00;;;;;;5243665;27;20543;-71